createdAt,value
2023-04-18T00:01:08.123Z,100976.47
2023-04-18T00:03:37.305Z,100989.28
2023-04-18T00:06:05.028Z,100981.47
2023-04-18T00:08:32.758Z,100946.06
2023-04-18T00:10:59.916Z,100986.59
2023-04-18T00:13:28.602Z,100989.88
2023-04-18T00:15:55.684Z,100964.72
2023-04-18T00:18:26.762Z,100945.75
2023-04-18T00:20:54.415Z,100981.50
2023-04-18T00:23:22.402Z,100996.16
2023-04-18T00:25:49.411Z,100947.78
2023-04-18T00:28:16.486Z,101007.94
2023-04-18T00:30:43.482Z,100964.09
2023-04-18T00:33:10.954Z,100906.81
2023-04-18T00:35:38.635Z,100989.72
2023-04-18T00:38:05.757Z,100995.56
2023-04-18T00:40:32.865Z,101001.19
2023-04-18T00:43:00.513Z,100959.53
2023-04-18T00:45:27.599Z,100992.13
2023-04-18T00:47:56.176Z,101009.53
2023-04-18T00:50:23.966Z,100966.66
2023-04-18T00:52:52.218Z,100977.59
2023-04-18T00:55:20.385Z,100986.78
2023-04-18T00:57:47.580Z,101000.09
2023-04-18T01:00:15.192Z,100982.50
2023-04-18T01:02:42.510Z,101003.81
2023-04-18T01:05:09.987Z,101014.72
2023-04-18T01:07:40.786Z,100967.88
2023-04-18T01:10:10.366Z,101008.38
2023-04-18T01:12:37.867Z,101009.47
2023-04-18T01:15:05.813Z,100875.56
2023-04-18T01:17:38.628Z,101007.75
2023-04-18T01:20:06.545Z,100947.38
2023-04-18T01:22:34.019Z,100945.81
2023-04-18T01:25:06.294Z,100919.22
2023-04-18T01:27:33.375Z,100957.25
2023-04-18T01:30:00.653Z,101013.16
2023-04-18T01:32:31.487Z,101009.69
2023-04-18T01:34:58.478Z,101009.09
2023-04-18T01:37:26.917Z,100942.97
2023-04-18T01:39:54.035Z,101009.59
2023-04-18T01:42:21.092Z,101015.47
2023-04-18T01:44:48.333Z,101015.16
2023-04-18T01:47:15.462Z,100988.22
2023-04-18T01:49:46.812Z,101011.78
2023-04-18T01:52:14.582Z,100986.78
2023-04-18T01:54:42.695Z,101009.75
2023-04-18T01:57:09.805Z,101018.75
2023-04-18T01:59:36.956Z,101011.19
2023-04-18T02:02:04.330Z,101015.91
2023-04-18T02:04:31.410Z,101012.75
2023-04-18T02:06:58.474Z,100986.13
2023-04-18T02:09:25.595Z,101021.59
2023-04-18T02:11:52.720Z,101001.47
2023-04-18T02:14:19.796Z,101022.66
2023-04-18T02:16:46.998Z,101020.13
2023-04-18T02:19:14.128Z,101030.69
2023-04-18T02:21:44.558Z,101018.03
2023-04-18T02:24:11.882Z,101014.88
2023-04-18T02:26:39.152Z,101024.38
2023-04-18T02:29:06.558Z,101024.38
2023-04-18T02:31:33.852Z,100997.09
2023-04-18T02:34:01.047Z,101000.41
2023-04-18T02:36:28.344Z,101017.66
2023-04-18T02:38:55.672Z,100911.97
2023-04-18T02:41:23.017Z,101011.97
2023-04-18T02:43:50.189Z,101007.66
2023-04-18T02:46:19.466Z,100993.53
2023-04-18T02:48:48.646Z,101022.09
2023-04-18T02:51:16.914Z,101016.75
2023-04-18T02:53:44.079Z,101019.75
2023-04-18T02:56:11.876Z,101026.25
2023-04-18T02:59:05.265Z,101004.66
2023-04-18T03:02:01.714Z,101014.38
2023-04-18T03:04:29.171Z,101026.97
2023-04-18T03:07:01.982Z,101035.81
2023-04-18T03:09:32.816Z,101025.19
2023-04-18T03:12:05.473Z,101006.78
2023-04-18T03:14:34.411Z,101032.31
2023-04-18T03:17:01.615Z,101036.72
2023-04-18T03:19:35.256Z,101014.47
2023-04-18T03:22:06.700Z,101005.22
2023-04-18T03:24:36.248Z,101028.09
2023-04-18T03:27:06.208Z,101035.88
2023-04-18T03:29:34.178Z,100972.44
2023-04-18T03:32:01.537Z,101038.09
2023-04-18T03:34:30.403Z,101000.09
2023-04-18T03:36:57.521Z,101040.63
2023-04-18T03:39:25.758Z,101042.59
2023-04-18T03:41:53.598Z,101025.84
2023-04-18T03:44:21.312Z,101051.84
2023-04-18T03:46:48.355Z,101027.78
2023-04-18T03:49:15.428Z,101049.63
2023-04-18T03:51:47.467Z,101046.81
2023-04-18T03:54:15.540Z,101027.78
2023-04-18T03:56:43.457Z,101046.47
2023-04-18T03:59:11.585Z,101057.75
2023-04-18T04:01:40.810Z,101038.13
2023-04-18T04:04:09.564Z,101068.44
2023-04-18T04:06:36.901Z,101056.13
2023-04-18T04:09:04.188Z,101063.00
2023-04-18T04:11:31.410Z,101057.50
2023-04-18T04:13:58.534Z,101011.38
2023-04-18T04:16:31.448Z,101061.25
2023-04-18T04:18:59.679Z,101071.56
2023-04-18T04:21:33.527Z,101072.38
2023-04-18T04:24:01.564Z,101064.56
2023-04-18T04:26:36.920Z,101076.19
2023-04-18T04:29:13.860Z,101078.72
2023-04-18T04:31:42.704Z,101082.88
2023-04-18T04:34:09.826Z,101082.84
2023-04-18T04:36:37.507Z,101096.75
2023-04-18T04:39:06.757Z,101087.13
2023-04-18T04:41:47.296Z,101094.88
2023-04-18T04:44:17.969Z,101041.34
2023-04-18T04:46:45.505Z,101063.00
2023-04-18T04:49:19.153Z,101088.78
2023-04-18T04:51:46.185Z,101096.41
2023-04-18T04:54:13.785Z,101075.28
2023-04-18T04:56:41.456Z,101107.59
2023-04-18T04:59:08.682Z,101095.13
2023-04-18T05:01:49.621Z,101097.66
2023-04-18T05:04:17.454Z,101108.44
2023-04-18T05:06:45.132Z,101110.66
2023-04-18T05:09:12.163Z,101092.72
2023-04-18T05:11:39.226Z,101111.88
2023-04-18T05:14:06.538Z,101109.97
2023-04-18T05:16:33.826Z,101085.84
2023-04-18T05:19:00.856Z,101070.50
2023-04-18T05:21:28.920Z,101105.81
2023-04-18T05:23:56.365Z,101116.34
2023-04-18T05:26:24.459Z,101093.19
2023-04-18T05:28:51.729Z,101075.38
2023-04-18T05:31:19.050Z,101048.63
2023-04-18T05:33:46.374Z,101091.53
2023-04-18T05:36:13.465Z,101115.25
2023-04-18T05:38:40.549Z,101110.84
2023-04-18T05:41:07.559Z,101115.41
2023-04-18T05:43:34.589Z,101005.44
2023-04-18T05:46:01.829Z,101126.06
2023-04-18T05:48:29.024Z,101123.41
2023-04-18T05:50:56.307Z,101124.53
2023-04-18T05:53:23.441Z,101128.81
2023-04-18T05:55:50.628Z,101100.81
2023-04-18T05:58:17.743Z,101036.19
2023-04-18T06:00:44.949Z,101131.06
2023-04-18T06:03:12.113Z,101118.72
2023-04-18T06:05:41.132Z,101114.56
2023-04-18T06:08:08.376Z,101136.91
2023-04-18T06:10:37.638Z,101069.91
2023-04-18T06:13:06.140Z,101115.91
2023-04-18T06:15:34.440Z,101132.75
2023-04-18T06:18:01.643Z,101071.63
2023-04-18T06:20:28.922Z,101084.16
2023-04-18T06:22:56.101Z,101101.28
2023-04-18T06:25:24.886Z,101134.69
2023-04-18T06:27:52.015Z,101140.03
2023-04-18T06:30:22.213Z,101138.09
2023-04-18T06:32:49.601Z,101132.41
2023-04-18T06:35:17.012Z,101120.06
2023-04-18T06:37:45.010Z,101138.75
2023-04-18T06:40:12.530Z,101129.56
2023-04-18T06:42:39.607Z,101134.34
2023-04-18T06:45:07.452Z,101100.13
2023-04-18T06:47:34.741Z,101135.00
2023-04-18T06:50:01.851Z,101124.84
2023-04-18T06:52:28.987Z,101146.38
2023-04-18T06:54:56.104Z,101139.56
2023-04-18T06:57:23.244Z,101079.97
2023-04-18T06:59:50.422Z,101144.25
2023-04-18T07:02:17.536Z,101090.88
2023-04-18T07:04:44.917Z,101128.16
2023-04-18T07:07:12.255Z,101147.28
2023-04-18T07:09:39.361Z,101147.28
2023-04-18T07:12:06.566Z,101152.47
2023-04-18T07:14:34.330Z,101120.22
2023-04-18T07:17:02.127Z,101151.88
2023-04-18T07:19:29.314Z,101106.38
2023-04-18T07:21:56.641Z,101158.66
2023-04-18T07:24:24.010Z,101149.03
2023-04-18T07:26:53.719Z,101153.13
2023-04-18T07:29:22.020Z,101166.44
2023-04-18T07:31:49.705Z,101152.97
2023-04-18T07:34:17.558Z,101179.28
2023-04-18T07:36:44.681Z,101182.44
2023-04-18T07:39:11.766Z,101138.88
2023-04-18T07:41:38.900Z,101138.38
2023-04-18T07:44:07.316Z,101165.94
2023-04-18T07:46:34.437Z,101148.38
2023-04-18T07:49:02.500Z,101165.47
2023-04-18T07:51:32.505Z,101173.44
2023-04-18T07:53:59.706Z,101097.22
2023-04-18T07:56:28.074Z,101170.56
2023-04-18T07:58:55.235Z,101190.38
2023-04-18T08:01:24.448Z,101188.88
2023-04-18T08:03:55.277Z,101183.63
2023-04-18T08:06:22.680Z,101150.75
2023-04-18T08:08:49.928Z,101183.34
2023-04-18T08:11:17.003Z,101164.81
2023-04-18T08:13:44.182Z,101191.78
2023-04-18T08:16:11.392Z,101200.97
2023-04-18T08:18:38.555Z,101166.59
2023-04-18T08:21:05.825Z,101142.81
2023-04-18T08:23:32.978Z,101203.19
2023-04-18T08:26:00.141Z,101204.53
2023-04-18T08:28:27.342Z,101202.00
2023-04-18T08:30:55.396Z,101162.06
2023-04-18T08:33:24.115Z,101155.06
2023-04-18T08:35:52.035Z,101180.34
2023-04-18T08:38:19.463Z,101206.94
2023-04-18T08:40:46.692Z,101205.31
2023-04-18T08:43:15.324Z,101206.28
2023-04-18T08:45:43.580Z,101180.72
2023-04-18T08:48:15.179Z,101211.97
2023-04-18T08:50:43.349Z,101217.66
2023-04-18T08:53:11.608Z,101192.88
2023-04-18T08:55:38.846Z,101167.78
2023-04-18T08:58:07.011Z,101175.06
2023-04-18T09:00:34.276Z,101134.50
2023-04-18T09:03:03.932Z,101215.25
2023-04-18T09:05:31.405Z,101185.94
2023-04-18T09:07:58.517Z,101185.28
2023-04-18T09:10:33.515Z,101216.59
2023-04-18T09:13:03.749Z,101217.09
2023-04-18T09:15:31.532Z,101192.38
2023-04-18T09:18:02.454Z,101216.03
2023-04-18T09:20:44.109Z,101226.41
2023-04-18T09:23:16.287Z,101221.66
2023-04-18T09:25:46.962Z,101169.91
2023-04-18T09:28:23.559Z,101227.00
2023-04-18T09:30:52.820Z,101224.97
2023-04-18T09:33:36.953Z,101100.16
2023-04-18T09:36:27.908Z,101224.50
2023-04-18T09:38:56.947Z,101216.97
2023-04-18T09:41:24.754Z,101220.53
2023-04-18T09:44:12.495Z,101228.94
2023-04-18T09:46:43.300Z,101171.50
2023-04-18T09:49:13.170Z,101225.84
2023-04-18T09:51:42.204Z,101227.28
2023-04-18T09:54:13.713Z,101222.38
2023-04-18T09:56:44.484Z,101183.34
2023-04-18T09:59:13.214Z,101223.03
2023-04-18T10:01:41.466Z,101213.91
2023-04-18T10:04:10.468Z,101203.44
2023-04-18T10:06:39.928Z,101225.78
2023-04-18T10:09:09.543Z,101175.53
2023-04-18T10:11:36.914Z,101200.94
2023-04-18T10:14:12.481Z,101200.13
2023-04-18T10:16:40.302Z,101144.09
2023-04-18T10:19:25.406Z,101215.88
2023-04-18T10:22:00.997Z,101217.28
2023-04-18T10:24:54.278Z,101197.50
2023-04-18T10:27:49.532Z,101213.50
2023-04-18T10:30:17.157Z,101191.41
2023-04-18T10:32:46.637Z,101114.66
2023-04-18T10:35:13.911Z,101161.78
2023-04-18T10:37:51.191Z,101171.34
2023-04-18T10:40:33.200Z,101159.69
2023-04-18T10:43:00.630Z,101150.50
2023-04-18T10:45:29.807Z,101212.69
2023-04-18T10:48:26.088Z,101212.03
2023-04-18T10:51:19.262Z,101212.03
2023-04-18T10:53:57.752Z,101182.28
2023-04-18T10:56:26.314Z,101194.81
2023-04-18T10:58:54.078Z,101203.38
2023-04-18T11:01:32.485Z,101203.25
2023-04-18T11:04:00.786Z,101187.28
2023-04-18T11:06:29.060Z,101138.97
2023-04-18T11:09:13.766Z,101194.72
2023-04-18T11:11:41.922Z,101216.13
2023-04-18T11:14:09.408Z,101217.72
2023-04-18T11:16:36.775Z,101212.75
2023-04-18T11:19:26.009Z,101193.41
2023-04-18T11:21:53.061Z,101210.84
2023-04-18T11:24:24.468Z,101193.75
2023-04-18T11:26:56.072Z,101165.72
2023-04-18T11:29:23.500Z,101201.38
2023-04-18T11:31:53.032Z,101185.88
2023-04-18T11:34:20.981Z,101204.41
2023-04-18T11:36:52.822Z,101185.91
2023-04-18T11:39:19.956Z,101201.75
2023-04-18T11:41:50.701Z,101198.53
2023-04-18T11:44:27.072Z,101189.84
2023-04-18T11:46:54.433Z,101167.66
2023-04-18T11:49:32.274Z,101194.41
2023-04-18T11:51:59.828Z,101191.06
2023-04-18T11:54:37.716Z,101109.72
2023-04-18T11:57:06.335Z,101159.84
2023-04-18T11:59:33.614Z,101198.47
2023-04-18T12:02:16.244Z,101150.94
2023-04-18T12:04:53.430Z,101185.31
2023-04-18T12:07:41.353Z,101179.13
2023-04-18T12:10:23.474Z,101160.13
2023-04-18T12:12:55.746Z,101160.94
2023-04-18T12:15:27.309Z,101184.91
2023-04-18T12:18:03.618Z,101191.34
2023-04-18T12:20:39.857Z,101184.91
2023-04-18T12:23:08.598Z,101184.59
2023-04-18T12:25:36.532Z,101143.88
2023-04-18T12:28:18.766Z,101174.19
2023-04-18T12:30:45.861Z,101154.09
2023-04-18T12:33:12.993Z,101143.50
2023-04-18T12:35:40.224Z,101180.88
2023-04-18T12:38:07.378Z,101146.19
2023-04-18T12:40:34.475Z,101152.72
2023-04-18T12:43:03.573Z,101182.31
2023-04-18T12:45:31.286Z,101166.03
2023-04-18T12:47:59.009Z,101176.16
2023-04-18T12:50:27.033Z,101165.41
2023-04-18T12:52:55.950Z,101175.19
2023-04-18T12:55:23.083Z,101173.16
2023-04-18T12:57:54.509Z,101143.41
2023-04-18T13:00:28.920Z,101173.00
2023-04-18T13:02:56.534Z,101165.25
2023-04-18T13:05:31.740Z,101151.13
2023-04-18T13:08:12.777Z,101138.19
2023-04-18T13:10:43.025Z,101180.28
2023-04-18T13:13:10.050Z,101178.06
2023-04-18T13:15:37.194Z,101060.31
2023-04-18T13:18:06.562Z,101179.03
2023-04-18T13:20:34.500Z,101182.50
2023-04-18T13:23:04.678Z,101177.44
2023-04-18T13:25:31.942Z,101172.69
2023-04-18T13:28:00.945Z,101171.09
2023-04-18T13:30:28.722Z,101163.19
2023-04-18T13:32:56.915Z,101172.38
2023-04-18T13:35:24.235Z,101141.34
2023-04-18T13:37:51.396Z,101158.09
2023-04-18T13:40:18.580Z,101164.94
2023-04-18T13:42:45.729Z,101153.53
2023-04-18T13:45:12.918Z,101173.31
2023-04-18T13:47:40.101Z,101167.94
2023-04-18T13:50:08.137Z,101048.78
2023-04-18T13:52:35.419Z,101164.16
2023-04-18T13:55:02.435Z,101117.28
2023-04-18T13:57:32.159Z,101163.03
2023-04-18T13:59:59.355Z,101134.69
2023-04-18T14:02:26.658Z,101168.41
2023-04-18T14:04:55.339Z,101165.41
2023-04-18T14:07:22.768Z,101167.94
2023-04-18T14:09:50.467Z,101162.38
2023-04-18T14:12:18.624Z,101155.09
2023-04-18T14:14:45.712Z,101151.81
2023-04-18T14:17:12.754Z,101143.56
2023-04-18T14:19:39.777Z,101086.50
2023-04-18T14:22:07.977Z,101162.53
2023-04-18T14:24:36.401Z,101173.16
2023-04-18T14:27:03.580Z,101168.88
2023-04-18T14:29:31.023Z,101142.44
2023-04-18T14:31:58.194Z,101142.31
2023-04-18T14:34:25.335Z,101149.41
2023-04-18T14:36:52.475Z,101161.28
2023-04-18T14:39:19.645Z,101142.94
2023-04-18T14:41:46.756Z,101165.72
2023-04-18T14:44:13.941Z,101168.09
2023-04-18T14:46:42.708Z,101157.47
2023-04-18T14:49:10.090Z,101167.63
2023-04-18T14:51:37.228Z,101164.59
2023-04-18T14:54:04.520Z,101159.09
2023-04-18T14:56:31.903Z,101165.56
2023-04-18T14:58:58.930Z,101134.38
2023-04-18T15:01:26.402Z,101120.91
2023-04-18T15:03:53.797Z,101134.69
2023-04-18T15:06:21.056Z,101140.72
2023-04-18T15:08:48.164Z,101143.72
2023-04-18T15:11:15.307Z,101160.50
2023-04-18T15:13:42.349Z,101157.00
2023-04-18T15:16:09.597Z,101177.28
2023-04-18T15:18:37.021Z,101123.31
2023-04-18T15:21:04.213Z,101177.91
2023-04-18T15:23:32.073Z,101188.69
2023-04-18T15:25:59.491Z,101121.09
2023-04-18T15:28:26.751Z,101142.75
2023-04-18T15:30:53.892Z,101149.44
2023-04-18T15:33:21.221Z,101167.94
2023-04-18T15:35:48.460Z,101134.41
2023-04-18T15:38:15.752Z,101137.84
2023-04-18T15:40:43.680Z,101162.69
2023-04-18T15:43:11.009Z,101165.56
2023-04-18T15:45:38.082Z,101170.00
2023-04-18T15:48:05.549Z,101169.69
2023-04-18T15:50:33.969Z,101165.25
2023-04-18T15:53:02.017Z,101153.84
2023-04-18T15:55:29.513Z,101157.81
2023-04-18T15:57:56.635Z,101104.31
2023-04-18T16:00:24.098Z,101112.38
2023-04-18T16:02:51.443Z,101133.13
2023-04-18T16:05:19.334Z,101157.50
2023-04-18T16:07:46.638Z,101121.41
2023-04-18T16:10:15.371Z,101143.88
2023-04-18T16:12:42.662Z,101163.97
2023-04-18T16:15:10.367Z,101163.81
2023-04-18T16:17:37.957Z,101158.78
2023-04-18T16:20:09.266Z,101168.25
2023-04-18T16:22:37.405Z,101157.38
2023-04-18T16:25:05.099Z,101143.88
2023-04-18T16:27:33.167Z,101160.97
2023-04-18T16:30:00.427Z,101176.97
2023-04-18T16:32:27.532Z,101162.69
2023-04-18T16:34:54.878Z,101071.41
2023-04-18T16:37:22.018Z,101176.47
2023-04-18T16:39:49.184Z,101171.41
2023-04-18T16:42:16.646Z,101165.56
2023-04-18T16:44:45.367Z,101172.03
2023-04-18T16:47:12.473Z,101172.97
2023-04-18T16:49:39.617Z,101142.09
2023-04-18T16:52:06.916Z,101143.22
2023-04-18T16:54:34.208Z,101175.84
2023-04-18T16:57:01.827Z,101159.19
2023-04-18T16:59:28.940Z,101184.06
2023-04-18T17:01:56.209Z,101186.63
2023-04-18T17:04:23.634Z,101200.22
2023-04-18T17:06:52.051Z,101172.38
2023-04-18T17:09:19.837Z,101189.13
2023-04-18T17:11:47.080Z,101180.91
2023-04-18T17:14:14.404Z,101183.94
2023-04-18T17:16:42.380Z,101187.19
2023-04-18T17:19:10.541Z,101150.91
2023-04-18T17:21:38.672Z,101125.69
2023-04-18T17:24:07.144Z,101175.22
2023-04-18T17:26:35.395Z,101194.06
2023-04-18T17:29:04.415Z,101185.78
2023-04-18T17:31:32.613Z,101185.78
2023-04-18T17:34:00.555Z,101184.00
2023-04-18T17:36:27.973Z,101163.72
2023-04-18T17:38:55.978Z,101168.41
2023-04-18T17:41:23.386Z,101153.47
2023-04-18T17:43:53.852Z,101184.66
2023-04-18T17:46:21.044Z,101151.31
2023-04-18T17:48:48.381Z,101177.34
2023-04-18T17:51:19.378Z,101178.94
2023-04-18T17:53:46.898Z,101193.94
2023-04-18T17:56:14.173Z,101191.66
2023-04-18T17:58:41.348Z,101138.81
2023-04-18T18:01:15.853Z,101169.81
2023-04-18T18:03:43.973Z,101140.84
2023-04-18T18:06:15.235Z,101193.41
2023-04-18T18:08:43.284Z,101187.03
2023-04-18T18:11:11.087Z,101172.75
2023-04-18T18:13:39.254Z,101199.03
2023-04-18T18:16:07.120Z,101199.44
2023-04-18T18:18:34.906Z,101139.06
2023-04-18T18:21:02.050Z,101160.91
2023-04-18T18:23:29.362Z,101200.97
2023-04-18T18:25:56.504Z,101170.03
2023-04-18T18:28:23.682Z,101196.94
2023-04-18T18:30:50.827Z,101171.06
2023-04-18T18:33:18.047Z,101202.47
2023-04-18T18:35:45.126Z,101163.00
2023-04-18T18:38:12.266Z,101151.91
2023-04-18T18:40:39.331Z,101184.06
2023-04-18T18:43:06.517Z,101209.19
2023-04-18T18:45:33.838Z,101177.38
2023-04-18T18:48:01.271Z,101162.38
2023-04-18T18:50:29.479Z,101206.84
2023-04-18T18:52:56.584Z,101199.22
2023-04-18T18:55:23.682Z,101190.19
2023-04-18T18:57:51.085Z,101197.03
2023-04-18T19:00:18.225Z,101197.56
2023-04-18T19:02:45.651Z,101197.34
2023-04-18T19:05:12.938Z,101161.41
2023-04-18T19:07:42.420Z,101206.69
2023-04-18T19:10:11.182Z,101149.50
2023-04-18T19:12:38.598Z,101211.00
2023-04-18T19:15:06.612Z,101193.59
2023-04-18T19:17:34.215Z,101186.59
2023-04-18T19:20:01.717Z,101198.00
2023-04-18T19:22:29.905Z,101205.13
2023-04-18T19:24:57.470Z,101219.03
2023-04-18T19:27:24.553Z,101163.63
2023-04-18T19:29:51.865Z,101190.56
2023-04-18T19:32:18.968Z,101129.53
2023-04-18T19:34:46.371Z,101181.00
2023-04-18T19:37:13.544Z,101184.81
2023-04-18T19:39:40.806Z,101126.22
2023-04-18T19:42:08.509Z,101188.28
2023-04-18T19:44:35.730Z,101191.84
2023-04-18T19:47:02.758Z,101191.13
2023-04-18T19:49:29.862Z,101132.69
2023-04-18T19:51:56.982Z,101188.97
2023-04-18T19:54:24.104Z,101186.84
2023-04-18T19:56:51.357Z,101182.66
2023-04-18T19:59:18.508Z,101151.28
2023-04-18T20:01:45.611Z,101071.44
2023-04-18T20:04:12.947Z,101042.72
2023-04-18T20:06:40.653Z,101182.53
2023-04-18T20:09:13.309Z,101130.09
2023-04-18T20:11:42.411Z,101183.66
2023-04-18T20:14:10.365Z,101176.38
2023-04-18T20:16:37.539Z,101149.03
2023-04-18T20:19:05.907Z,101124.66
2023-04-18T20:21:32.972Z,101145.59
2023-04-18T20:24:00.158Z,101175.44
2023-04-18T20:26:27.409Z,101051.56
2023-04-18T20:28:54.495Z,101174.97
2023-04-18T20:31:21.595Z,101180.72
2023-04-18T20:33:49.002Z,101130.22
2023-04-18T20:36:17.705Z,101154.81
2023-04-18T20:38:44.889Z,101137.50
2023-04-18T20:41:18.322Z,101171.63
2023-04-18T20:43:46.914Z,101174.28
2023-04-18T20:46:14.177Z,101166.34
2023-04-18T20:48:41.370Z,101172.69
2023-04-18T20:51:08.398Z,101135.38
2023-04-18T20:53:35.377Z,101124.13
2023-04-18T20:56:05.848Z,101149.34
2023-04-18T20:58:32.893Z,101134.19
2023-04-18T21:00:59.873Z,101039.53
2023-04-18T21:03:27.113Z,101148.72
2023-04-18T21:05:54.245Z,101103.72
2023-04-18T21:08:21.399Z,101141.56
2023-04-18T21:10:48.540Z,101141.59
2023-04-18T21:13:15.784Z,101149.22
2023-04-18T21:15:43.124Z,101146.41
2023-04-18T21:18:10.726Z,101132.97
2023-04-18T21:20:37.784Z,101126.78
2023-04-18T21:23:04.953Z,101073.28
2023-04-18T21:25:32.042Z,101119.22
2023-04-18T21:27:59.077Z,101144.59
2023-04-18T21:30:26.165Z,101078.38
2023-04-18T21:32:53.504Z,101143.81
2023-04-18T21:35:22.003Z,101142.41
2023-04-18T21:37:51.414Z,101144.59
2023-04-18T21:40:18.578Z,101099.28
2023-04-18T21:42:46.873Z,101138.50
2023-04-18T21:45:15.229Z,101141.50
2023-04-18T21:47:42.420Z,101141.22
2023-04-18T21:50:10.536Z,101043.94
2023-04-18T21:52:37.790Z,101125.16
2023-04-18T21:55:05.283Z,101140.72
2023-04-18T21:57:32.358Z,101134.91
2023-04-18T21:59:59.503Z,101138.06
2023-04-18T22:02:27.626Z,101141.19
2023-04-18T22:04:54.873Z,101115.50
2023-04-18T22:07:24.189Z,101129.34
2023-04-18T22:09:51.519Z,101098.06
2023-04-18T22:12:18.590Z,101081.94
2023-04-18T22:14:48.510Z,101136.16
2023-04-18T22:17:15.860Z,101083.38
2023-04-18T22:19:44.580Z,101109.09
2023-04-18T22:22:11.825Z,101153.00
2023-04-18T22:24:39.023Z,101126.97
2023-04-18T22:27:06.167Z,101128.25
2023-04-18T22:29:33.281Z,101128.84
2023-04-18T22:32:00.327Z,101124.84
2023-04-18T22:34:27.448Z,101094.13
2023-04-18T22:36:54.631Z,101078.31
2023-04-18T22:39:21.668Z,101118.16
2023-04-18T22:41:48.854Z,101110.41
2023-04-18T22:44:16.228Z,101113.91
2023-04-18T22:46:43.583Z,101052.13
2023-04-18T22:49:10.946Z,101105.84
2023-04-18T22:51:38.292Z,101108.34
2023-04-18T22:54:05.682Z,101104.31
2023-04-18T22:56:32.804Z,100992.06
2023-04-18T22:58:59.889Z,101081.94
2023-04-18T23:01:27.075Z,101068.94
2023-04-18T23:03:54.309Z,101093.34
2023-04-18T23:06:21.594Z,101090.50
2023-04-18T23:08:48.829Z,101095.34
2023-04-18T23:11:15.928Z,101095.66
2023-04-18T23:13:43.001Z,101062.84
2023-04-18T23:16:10.238Z,101081.75
2023-04-18T23:18:37.410Z,101074.84
2023-04-18T23:21:04.493Z,101068.47
2023-04-18T23:23:31.626Z,101080.66
2023-04-18T23:25:58.912Z,101069.44
2023-04-18T23:28:26.047Z,101002.22
2023-04-18T23:30:53.129Z,101055.66
2023-04-18T23:33:20.587Z,101065.84
2023-04-18T23:35:47.623Z,101061.13
2023-04-18T23:38:14.724Z,101046.59
2023-04-18T23:40:41.769Z,101065.34
2023-04-18T23:43:08.798Z,101031.75
2023-04-18T23:45:36.762Z,101031.63
2023-04-18T23:48:04.055Z,101037.97
2023-04-18T23:50:31.363Z,101058.09
2023-04-18T23:52:58.393Z,101025.19
2023-04-18T23:55:25.717Z,101057.44
2023-04-18T23:57:52.862Z,101052.38
